createdAt,value
2023-03-16T00:02:25.892Z,53.06
2023-03-16T00:04:52.263Z,52.92
2023-03-16T00:07:20.161Z,52.79
2023-03-16T00:09:46.513Z,53.15
2023-03-16T00:12:13.059Z,53.63
2023-03-16T00:14:39.441Z,53.94
2023-03-16T00:17:05.833Z,55.51
2023-03-16T00:19:32.220Z,55.16
2023-03-16T00:21:58.592Z,55.57
2023-03-16T00:24:24.955Z,55.92
2023-03-16T00:26:51.355Z,56.36
2023-03-16T00:29:17.699Z,55.90
2023-03-16T00:31:44.296Z,57.09
2023-03-16T00:34:10.726Z,56.34
2023-03-16T00:36:37.094Z,56.14
2023-03-16T00:39:03.444Z,55.89
2023-03-16T00:41:29.774Z,56.20
2023-03-16T00:43:56.146Z,57.04
2023-03-16T00:46:22.556Z,57.03
2023-03-16T00:48:48.982Z,57.80
2023-03-16T00:51:15.364Z,57.71
2023-03-16T00:53:41.793Z,57.04
2023-03-16T00:56:08.219Z,56.73
2023-03-16T00:58:34.622Z,57.12
2023-03-16T01:01:01.057Z,56.21
2023-03-16T01:03:27.482Z,55.61
2023-03-16T01:05:53.911Z,56.93
2023-03-16T01:08:20.310Z,56.36
2023-03-16T01:10:46.662Z,56.17
2023-03-16T01:13:13.073Z,56.04
2023-03-16T01:15:39.439Z,55.83
2023-03-16T01:18:05.855Z,56.15
2023-03-16T01:20:32.240Z,55.41
2023-03-16T01:22:58.643Z,55.49
2023-03-16T01:25:25.035Z,54.54
2023-03-16T01:27:51.394Z,55.19
2023-03-16T01:30:17.813Z,55.54
2023-03-16T01:32:44.236Z,56.44
2023-03-16T01:35:10.644Z,57.60
2023-03-16T01:37:37.026Z,57.81
2023-03-16T01:40:03.486Z,57.00
2023-03-16T01:42:29.874Z,56.17
2023-03-16T01:44:56.268Z,56.15
2023-03-16T01:47:22.638Z,55.16
2023-03-16T01:49:49.014Z,55.37
2023-03-16T01:52:15.377Z,55.74
2023-03-16T01:54:41.715Z,55.56
2023-03-16T01:57:08.111Z,56.32
2023-03-16T01:59:34.510Z,55.49
2023-03-16T02:02:00.857Z,55.42
2023-03-16T02:04:28.350Z,55.65
2023-03-16T02:06:54.971Z,56.15
2023-03-16T02:09:21.362Z,56.56
2023-03-16T02:11:47.727Z,56.43
2023-03-16T02:14:14.071Z,56.69
2023-03-16T02:16:40.582Z,56.96
2023-03-16T02:19:06.962Z,58.52
2023-03-16T02:21:33.360Z,58.89
2023-03-16T02:23:59.733Z,58.86
2023-03-16T02:26:26.117Z,59.70
2023-03-16T02:28:52.467Z,59.22
2023-03-16T02:31:18.887Z,58.78
2023-03-16T02:33:45.319Z,58.42
2023-03-16T02:36:11.666Z,58.33
2023-03-16T02:38:37.998Z,58.72
2023-03-16T02:41:04.340Z,58.28
2023-03-16T02:43:30.677Z,58.63
2023-03-16T02:45:57.025Z,58.55
2023-03-16T02:48:23.410Z,58.33
2023-03-16T02:50:49.825Z,58.73
2023-03-16T02:53:16.218Z,57.93
2023-03-16T02:55:42.569Z,57.13
2023-03-16T02:58:08.912Z,57.06
2023-03-16T03:00:37.180Z,56.59
2023-03-16T03:03:03.636Z,56.34
2023-03-16T03:05:30.057Z,57.29
2023-03-16T03:07:56.408Z,58.17
2023-03-16T03:10:22.801Z,57.48
2023-03-16T03:12:49.181Z,57.35
2023-03-16T03:15:15.567Z,57.82
2023-03-16T03:17:41.953Z,57.48
2023-03-16T03:20:08.369Z,57.87
2023-03-16T03:22:34.761Z,57.50
2023-03-16T03:25:01.147Z,57.60
2023-03-16T03:27:27.624Z,57.62
2023-03-16T03:29:54.027Z,57.98
2023-03-16T03:32:20.426Z,58.07
2023-03-16T03:34:46.831Z,58.64
2023-03-16T03:37:13.224Z,57.75
2023-03-16T03:39:39.577Z,57.16
2023-03-16T03:42:05.908Z,56.61
2023-03-16T03:44:32.283Z,56.69
2023-03-16T03:46:58.673Z,56.25
2023-03-16T03:49:25.025Z,56.49
2023-03-16T03:51:51.393Z,55.66
2023-03-16T03:54:17.779Z,55.63
2023-03-16T03:56:44.173Z,55.21
2023-03-16T03:59:10.569Z,55.28
2023-03-16T04:01:36.916Z,56.08
2023-03-16T04:04:03.302Z,55.36
2023-03-16T04:06:29.696Z,55.81
2023-03-16T04:08:56.093Z,55.83
2023-03-16T04:11:22.468Z,56.42
2023-03-16T04:13:48.821Z,56.85
2023-03-16T04:16:15.172Z,56.07
2023-03-16T04:18:41.574Z,56.30
2023-03-16T04:21:07.937Z,56.70
2023-03-16T04:23:34.328Z,56.37
2023-03-16T04:26:00.743Z,57.01
2023-03-16T04:28:27.104Z,56.24
2023-03-16T04:30:53.462Z,56.52
2023-03-16T04:33:19.862Z,56.80
2023-03-16T04:35:46.334Z,57.56
2023-03-16T04:38:12.758Z,57.34
2023-03-16T04:40:39.145Z,57.28
2023-03-16T04:43:05.588Z,56.81
2023-03-16T04:45:31.995Z,56.88
2023-03-16T04:47:58.341Z,56.46
2023-03-16T04:50:24.867Z,56.72
2023-03-16T04:52:51.252Z,56.68
2023-03-16T04:55:17.615Z,56.54
2023-03-16T04:57:43.984Z,56.98
2023-03-16T05:00:10.356Z,56.35
2023-03-16T05:02:36.712Z,57.27
2023-03-16T05:05:03.075Z,56.94
2023-03-16T05:07:29.425Z,57.95
2023-03-16T05:09:55.771Z,57.45
2023-03-16T05:12:22.146Z,58.01
2023-03-16T05:14:48.506Z,58.19
2023-03-16T05:17:14.932Z,57.15
2023-03-16T05:19:41.323Z,58.46
2023-03-16T05:22:07.663Z,57.88
2023-03-16T05:24:34.049Z,58.07
2023-03-16T05:27:00.426Z,58.65
2023-03-16T05:29:26.819Z,60.18
2023-03-16T05:31:53.226Z,59.56
2023-03-16T05:34:19.620Z,59.08
2023-03-16T05:36:45.979Z,59.46
2023-03-16T05:39:12.362Z,59.50
2023-03-16T05:41:38.734Z,60.98
2023-03-16T05:44:05.077Z,59.72
2023-03-16T05:46:31.512Z,59.71
2023-03-16T05:48:57.900Z,59.69
2023-03-16T05:51:24.274Z,59.53
2023-03-16T05:53:50.629Z,59.06
2023-03-16T05:56:17.011Z,59.43
2023-03-16T05:58:43.404Z,59.33
2023-03-16T06:01:09.765Z,60.21
2023-03-16T06:03:36.143Z,59.93
2023-03-16T06:06:02.552Z,60.92
2023-03-16T06:08:28.903Z,61.37
2023-03-16T06:10:55.453Z,61.51
2023-03-16T06:13:21.808Z,61.40
2023-03-16T06:15:48.235Z,60.59
2023-03-16T06:18:14.655Z,59.17
2023-03-16T06:20:41.100Z,59.44
2023-03-16T06:23:07.553Z,59.18
2023-03-16T06:25:33.927Z,58.48
2023-03-16T06:28:00.284Z,59.32
2023-03-16T06:30:26.967Z,58.68
2023-03-16T06:32:53.509Z,59.12
2023-03-16T06:35:19.931Z,59.98
2023-03-16T06:37:46.294Z,60.75
2023-03-16T06:40:12.653Z,61.57
2023-03-16T06:42:38.997Z,61.12
2023-03-16T06:45:05.385Z,60.62
2023-03-16T06:47:31.786Z,61.13
2023-03-16T06:49:58.127Z,59.42
2023-03-16T06:52:24.459Z,60.49
2023-03-16T06:54:51.018Z,59.96
2023-03-16T06:57:17.386Z,60.11
2023-03-16T06:59:43.765Z,60.66
2023-03-16T07:02:10.117Z,59.80
2023-03-16T07:04:36.592Z,59.58
2023-03-16T07:07:03.055Z,59.45
2023-03-16T07:09:29.406Z,60.21
2023-03-16T07:11:55.785Z,62.18
2023-03-16T07:14:22.177Z,61.54
2023-03-16T07:16:48.578Z,62.57
2023-03-16T07:19:14.969Z,62.02
2023-03-16T07:21:41.316Z,60.80
2023-03-16T07:24:07.654Z,59.70
2023-03-16T07:26:34.038Z,59.55
2023-03-16T07:29:00.404Z,60.83
2023-03-16T07:31:26.816Z,61.58
2023-03-16T07:33:53.193Z,62.30
2023-03-16T07:36:19.667Z,61.67
2023-03-16T07:38:46.099Z,61.48
2023-03-16T07:41:12.460Z,61.19
2023-03-16T07:43:38.844Z,61.54
2023-03-16T07:46:05.411Z,62.04
2023-03-16T07:48:31.841Z,61.60
2023-03-16T07:50:58.243Z,60.11
2023-03-16T07:53:24.647Z,60.32
2023-03-16T07:55:51.000Z,61.51
2023-03-16T07:58:17.422Z,61.43
2023-03-16T08:00:43.812Z,60.95
2023-03-16T08:03:11.668Z,60.37
2023-03-16T08:05:38.123Z,59.43
2023-03-16T08:08:04.504Z,59.92
2023-03-16T08:10:31.477Z,59.29
2023-03-16T08:12:58.191Z,60.25
2023-03-16T08:15:24.575Z,59.67
2023-03-16T08:17:50.944Z,57.77
2023-03-16T08:20:17.328Z,57.67
2023-03-16T08:22:43.714Z,56.64
2023-03-16T08:25:10.103Z,56.81
2023-03-16T08:27:36.440Z,56.59
2023-03-16T08:30:02.829Z,55.22
2023-03-16T08:32:29.259Z,55.60
2023-03-16T08:34:55.657Z,54.97
2023-03-16T08:37:24.780Z,54.00
2023-03-16T08:39:51.131Z,54.03
2023-03-16T08:42:17.464Z,54.08
2023-03-16T08:44:43.867Z,52.49
2023-03-16T08:47:10.232Z,53.31
2023-03-16T08:49:36.577Z,52.88
2023-03-16T08:52:02.929Z,54.33
2023-03-16T08:54:29.273Z,52.99
2023-03-16T08:56:55.625Z,51.36
2023-03-16T08:59:29.803Z,53.11
2023-03-16T09:01:56.799Z,53.21
2023-03-16T09:04:23.363Z,51.65
2023-03-16T09:07:02.359Z,49.77
2023-03-16T09:09:34.112Z,47.48
2023-03-16T09:12:00.509Z,47.33
2023-03-16T09:14:26.862Z,46.97
2023-03-16T09:16:53.251Z,47.56
2023-03-16T09:19:19.649Z,48.93
2023-03-16T09:21:47.377Z,47.91
2023-03-16T09:24:13.895Z,46.61
2023-03-16T09:26:40.574Z,46.76
2023-03-16T09:29:06.992Z,45.73
2023-03-16T09:31:33.429Z,44.32
2023-03-16T09:33:59.829Z,45.11
2023-03-16T09:36:26.180Z,45.29
2023-03-16T09:38:52.544Z,44.57
2023-03-16T09:41:18.907Z,43.14
2023-03-16T09:43:45.261Z,41.92
2023-03-16T09:46:11.686Z,42.54
2023-03-16T09:48:38.138Z,42.47
2023-03-16T09:51:04.584Z,42.18
2023-03-16T09:53:31.019Z,42.92
2023-03-16T09:55:57.386Z,43.14
2023-03-16T09:58:23.733Z,41.98
2023-03-16T10:00:50.219Z,41.06
2023-03-16T10:03:16.685Z,41.68
2023-03-16T10:05:43.082Z,40.03
2023-03-16T10:08:09.483Z,38.07
2023-03-16T10:10:35.850Z,38.99
2023-03-16T10:13:02.265Z,39.97
2023-03-16T10:15:28.671Z,41.39
2023-03-16T10:17:55.079Z,41.23
2023-03-16T10:20:21.491Z,42.03
2023-03-16T10:22:47.892Z,37.94
2023-03-16T10:25:14.259Z,39.95
2023-03-16T10:27:40.644Z,39.09
2023-03-16T10:30:07.022Z,41.73
2023-03-16T10:32:33.390Z,41.17
2023-03-16T10:34:59.796Z,41.90
2023-03-16T10:37:26.168Z,40.94
2023-03-16T10:39:52.519Z,40.82
2023-03-16T10:42:18.861Z,38.46
2023-03-16T10:44:45.242Z,41.58
2023-03-16T10:47:11.775Z,40.97
2023-03-16T10:49:38.209Z,46.17
2023-03-16T10:52:04.572Z,44.53
2023-03-16T10:54:30.934Z,45.62
2023-03-16T10:56:57.322Z,45.73
2023-03-16T10:59:23.709Z,48.51
2023-03-16T11:01:50.170Z,48.54
2023-03-16T11:04:16.656Z,49.31
2023-03-16T11:06:43.052Z,48.22
2023-03-16T11:09:09.417Z,48.01
2023-03-16T11:11:35.765Z,48.26
2023-03-16T11:14:02.106Z,49.42
2023-03-16T11:16:28.477Z,48.74
2023-03-16T11:18:54.872Z,47.84
2023-03-16T11:21:21.253Z,49.11
2023-03-16T11:23:47.606Z,47.88
2023-03-16T11:26:13.976Z,47.46
2023-03-16T11:28:40.331Z,48.26
2023-03-16T11:31:06.739Z,49.51
2023-03-16T11:33:33.101Z,47.24
2023-03-16T11:35:59.808Z,48.21
2023-03-16T11:38:26.249Z,50.06
2023-03-16T11:40:52.637Z,47.52
2023-03-16T11:43:19.049Z,47.30
2023-03-16T11:45:45.424Z,50.20
2023-03-16T11:48:11.773Z,46.27
2023-03-16T11:50:38.119Z,47.28
2023-03-16T11:53:04.505Z,48.35
2023-03-16T11:55:31.092Z,45.86
2023-03-16T11:57:57.521Z,45.96
2023-03-16T12:00:23.886Z,49.11
2023-03-16T12:02:50.423Z,49.92
2023-03-16T12:05:16.891Z,48.92
2023-03-16T12:07:43.236Z,47.15
2023-03-16T12:10:09.625Z,48.03
2023-03-16T12:12:35.987Z,49.08
2023-03-16T12:15:02.379Z,48.26
2023-03-16T12:17:28.771Z,50.97
2023-03-16T12:19:55.170Z,46.88
2023-03-16T12:22:21.525Z,46.82
2023-03-16T12:24:47.930Z,46.81
2023-03-16T12:27:14.363Z,47.46
2023-03-16T12:29:40.724Z,48.66
2023-03-16T12:32:07.104Z,48.46
2023-03-16T12:34:33.505Z,47.04
2023-03-16T12:36:59.861Z,45.94
2023-03-16T12:39:26.225Z,45.85
2023-03-16T12:41:52.615Z,46.51
2023-03-16T12:44:18.986Z,45.43
2023-03-16T12:46:47.761Z,45.88
2023-03-16T12:49:14.283Z,48.26
2023-03-16T12:51:40.679Z,47.07
2023-03-16T12:54:07.033Z,43.28
2023-03-16T12:56:33.383Z,46.38
2023-03-16T12:58:59.740Z,47.18
2023-03-16T13:01:26.174Z,44.97
2023-03-16T13:03:52.606Z,42.58
2023-03-16T13:06:18.998Z,43.67
2023-03-16T13:08:45.357Z,43.48
2023-03-16T13:11:11.705Z,44.25
2023-03-16T13:13:38.092Z,45.63
2023-03-16T13:16:04.484Z,43.65
2023-03-16T13:18:30.861Z,42.43
2023-03-16T13:20:57.247Z,40.92
2023-03-16T13:23:23.786Z,42.37
2023-03-16T13:25:50.145Z,43.44
2023-03-16T13:28:16.492Z,46.08
2023-03-16T13:30:42.859Z,41.28
2023-03-16T13:33:09.258Z,44.50
2023-03-16T13:35:38.111Z,44.51
2023-03-16T13:38:05.454Z,45.28
2023-03-16T13:40:31.831Z,42.14
2023-03-16T13:42:58.225Z,41.68
2023-03-16T13:45:24.582Z,45.69
2023-03-16T13:47:50.928Z,42.41
2023-03-16T13:50:17.314Z,42.78
2023-03-16T13:52:43.663Z,40.65
2023-03-16T13:55:10.053Z,43.71
2023-03-16T13:57:36.435Z,42.78
2023-03-16T14:00:02.856Z,44.43
2023-03-16T14:02:29.343Z,47.76
2023-03-16T14:04:55.789Z,46.13
2023-03-16T14:07:22.143Z,45.31
2023-03-16T14:09:48.533Z,47.17
2023-03-16T14:12:14.969Z,47.21
2023-03-16T14:14:41.586Z,46.48
2023-03-16T14:17:07.982Z,51.34
2023-03-16T14:19:34.327Z,47.90
2023-03-16T14:22:00.717Z,48.55
2023-03-16T14:24:27.108Z,47.72
2023-03-16T14:26:53.502Z,48.41
2023-03-16T14:29:19.873Z,44.33
2023-03-16T14:31:46.248Z,47.03
2023-03-16T14:34:12.608Z,44.68
2023-03-16T14:36:39.061Z,46.63
2023-03-16T14:39:05.456Z,42.54
2023-03-16T14:41:31.826Z,41.82
2023-03-16T14:43:58.207Z,45.12
2023-03-16T14:46:24.591Z,44.29
2023-03-16T14:48:50.944Z,43.04
2023-03-16T14:51:17.301Z,42.32
2023-03-16T14:53:43.639Z,42.02
2023-03-16T14:56:09.990Z,39.65
2023-03-16T14:58:36.327Z,39.09
2023-03-16T15:01:02.719Z,39.68
2023-03-16T15:03:29.109Z,36.32
2023-03-16T15:05:55.563Z,38.56
2023-03-16T15:08:21.948Z,38.37
2023-03-16T15:10:48.309Z,39.48
2023-03-16T15:13:14.657Z,38.44
2023-03-16T15:15:41.054Z,40.29
2023-03-16T15:18:07.458Z,42.45
2023-03-16T15:20:33.797Z,40.58
2023-03-16T15:23:00.178Z,38.38
2023-03-16T15:25:26.573Z,41.59
2023-03-16T15:27:52.924Z,38.50
2023-03-16T15:30:19.326Z,39.33
2023-03-16T15:32:45.702Z,41.95
2023-03-16T15:35:12.054Z,43.30
2023-03-16T15:37:38.397Z,42.80
2023-03-16T15:40:04.786Z,38.88
2023-03-16T15:42:31.147Z,39.85
2023-03-16T15:44:57.530Z,42.47
2023-03-16T15:47:23.933Z,41.08
2023-03-16T15:49:50.284Z,39.36
2023-03-16T15:52:16.673Z,41.71
2023-03-16T15:54:43.030Z,42.37
2023-03-16T15:57:09.380Z,40.12
2023-03-16T15:59:35.711Z,40.24
2023-03-16T16:02:02.061Z,40.39
2023-03-16T16:04:28.453Z,36.81
2023-03-16T16:06:54.828Z,39.21
2023-03-16T16:09:21.172Z,39.89
2023-03-16T16:11:47.569Z,43.13
2023-03-16T16:14:13.924Z,41.79
2023-03-16T16:16:40.313Z,41.33
2023-03-16T16:19:06.670Z,41.72
2023-03-16T16:21:33.050Z,41.42
2023-03-16T16:23:59.430Z,39.03
2023-03-16T16:26:27.900Z,39.15
2023-03-16T16:28:58.058Z,39.55
2023-03-16T16:31:24.478Z,40.54
2023-03-16T16:33:50.831Z,40.31
2023-03-16T16:36:17.232Z,39.81
2023-03-16T16:38:43.622Z,38.47
2023-03-16T16:41:09.985Z,39.69
2023-03-16T16:43:36.375Z,40.65
2023-03-16T16:46:02.801Z,40.12
2023-03-16T16:48:29.195Z,37.86
2023-03-16T16:50:55.534Z,39.03
2023-03-16T16:53:21.890Z,38.38
2023-03-16T16:55:48.270Z,38.53
2023-03-16T16:58:23.868Z,38.66
2023-03-16T17:00:51.183Z,39.51
2023-03-16T17:03:17.643Z,38.47
2023-03-16T17:05:44.003Z,39.55
2023-03-16T17:08:10.389Z,40.99
2023-03-16T17:10:36.742Z,40.65
2023-03-16T17:13:03.136Z,40.21
2023-03-16T17:15:29.634Z,39.47
2023-03-16T17:17:56.110Z,40.14
2023-03-16T17:20:22.460Z,41.22
2023-03-16T17:22:48.847Z,42.05
2023-03-16T17:25:15.213Z,42.27
2023-03-16T17:27:41.552Z,43.15
2023-03-16T17:30:07.905Z,45.28
2023-03-16T17:32:34.295Z,47.08
2023-03-16T17:35:00.689Z,46.92
2023-03-16T17:37:27.041Z,47.85
2023-03-16T17:39:54.587Z,48.15
2023-03-16T17:42:22.023Z,50.37
2023-03-16T17:44:48.382Z,50.67
2023-03-16T17:47:14.790Z,44.99
2023-03-16T17:49:41.216Z,44.01
2023-03-16T17:52:07.600Z,47.23
2023-03-16T17:54:34.008Z,48.00
2023-03-16T17:57:00.375Z,46.43
2023-03-16T17:59:26.775Z,44.96
2023-03-16T18:01:53.154Z,47.02
2023-03-16T18:04:19.503Z,46.45
2023-03-16T18:06:45.891Z,48.39
2023-03-16T18:09:12.235Z,51.13
2023-03-16T18:11:38.583Z,51.24
2023-03-16T18:14:04.954Z,50.70
2023-03-16T18:16:31.433Z,51.55
2023-03-16T18:18:57.915Z,52.57
2023-03-16T18:21:24.270Z,52.11
2023-03-16T18:23:50.674Z,52.58
2023-03-16T18:26:17.021Z,51.59
2023-03-16T18:28:43.397Z,51.61
2023-03-16T18:31:09.848Z,51.86
2023-03-16T18:33:36.310Z,53.00
2023-03-16T18:36:02.726Z,49.34
2023-03-16T18:38:29.129Z,49.34
2023-03-16T18:40:55.484Z,48.51
2023-03-16T18:43:21.820Z,51.99
2023-03-16T18:45:48.243Z,52.23
2023-03-16T18:48:14.616Z,52.30
2023-03-16T18:50:41.005Z,51.76
2023-03-16T18:53:07.350Z,52.18
2023-03-16T18:55:33.735Z,52.63
2023-03-16T18:58:00.140Z,52.28
2023-03-16T19:00:26.600Z,53.92
2023-03-16T19:02:53.039Z,54.70
2023-03-16T19:05:19.451Z,53.81
2023-03-16T19:07:45.918Z,53.54
2023-03-16T19:10:12.318Z,54.24
2023-03-16T19:12:38.680Z,54.43
2023-03-16T19:15:05.023Z,53.89
2023-03-16T19:17:31.451Z,54.87
2023-03-16T19:19:57.874Z,53.43
2023-03-16T19:22:24.269Z,52.77
2023-03-16T19:24:50.732Z,51.52
2023-03-16T19:27:17.157Z,51.78
2023-03-16T19:29:43.565Z,51.94
2023-03-16T19:32:10.032Z,51.15
2023-03-16T19:34:36.450Z,50.50
2023-03-16T19:37:02.867Z,51.19
2023-03-16T19:39:29.249Z,51.65
2023-03-16T19:41:55.627Z,52.64
2023-03-16T19:44:22.051Z,52.97
2023-03-16T19:46:48.426Z,53.21
2023-03-16T19:49:14.777Z,52.21
2023-03-16T19:51:41.124Z,53.12
2023-03-16T19:54:07.470Z,53.31
2023-03-16T19:56:33.880Z,52.56
2023-03-16T19:59:00.247Z,52.68
2023-03-16T20:01:26.659Z,53.55
2023-03-16T20:03:53.073Z,52.92
2023-03-16T20:06:19.465Z,53.23
2023-03-16T20:08:45.879Z,52.04
2023-03-16T20:11:12.225Z,53.63
2023-03-16T20:13:38.613Z,53.07
2023-03-16T20:16:05.022Z,52.72
2023-03-16T20:18:31.463Z,52.07
2023-03-16T20:20:57.868Z,52.32
2023-03-16T20:23:24.234Z,51.42
2023-03-16T20:25:50.628Z,52.12
2023-03-16T20:28:17.008Z,51.43
2023-03-16T20:30:43.374Z,51.30
2023-03-16T20:33:09.773Z,51.47
2023-03-16T20:35:36.239Z,52.01
2023-03-16T20:38:02.664Z,52.71
2023-03-16T20:40:29.072Z,53.31
2023-03-16T20:42:55.480Z,52.71
2023-03-16T20:45:21.865Z,52.99
2023-03-16T20:47:48.258Z,53.26
2023-03-16T20:50:14.617Z,53.18
2023-03-16T20:52:40.970Z,52.67
2023-03-16T20:55:07.354Z,51.85
2023-03-16T20:57:33.708Z,51.96
2023-03-16T21:00:00.119Z,51.64
2023-03-16T21:02:26.482Z,52.47
2023-03-16T21:04:52.842Z,52.71
2023-03-16T21:07:19.382Z,52.62
2023-03-16T21:09:50.225Z,53.71
2023-03-16T21:12:16.808Z,52.24
2023-03-16T21:14:43.156Z,52.93
2023-03-16T21:17:09.492Z,53.08
2023-03-16T21:19:35.848Z,52.94
2023-03-16T21:22:02.253Z,53.96
2023-03-16T21:24:28.615Z,53.96
2023-03-16T21:26:54.965Z,54.46
2023-03-16T21:29:21.398Z,53.91
2023-03-16T21:31:47.786Z,54.07
2023-03-16T21:34:14.171Z,53.94
2023-03-16T21:36:41.342Z,54.36
2023-03-16T21:39:09.096Z,53.68
2023-03-16T21:41:35.449Z,53.73
2023-03-16T21:44:01.817Z,53.66
2023-03-16T21:46:28.230Z,54.33
2023-03-16T21:48:54.729Z,54.10
2023-03-16T21:51:21.104Z,53.42
2023-03-16T21:53:47.475Z,53.27
2023-03-16T21:56:13.872Z,52.79
2023-03-16T21:58:40.266Z,53.28
2023-03-16T22:01:06.628Z,52.45
2023-03-16T22:03:49.464Z,52.68
2023-03-16T22:06:16.717Z,51.93
2023-03-16T22:08:43.136Z,51.74
2023-03-16T22:11:09.476Z,52.11
2023-03-16T22:13:35.864Z,52.92
2023-03-16T22:16:02.356Z,53.71
2023-03-16T22:18:28.823Z,51.98
2023-03-16T22:20:55.188Z,52.13
2023-03-16T22:23:21.562Z,52.06
2023-03-16T22:25:47.926Z,51.52
2023-03-16T22:28:14.269Z,51.68
2023-03-16T22:30:40.608Z,51.67
2023-03-16T22:33:06.980Z,52.14
2023-03-16T22:35:33.464Z,51.70
2023-03-16T22:37:59.824Z,52.08
2023-03-16T22:40:26.167Z,51.73
2023-03-16T22:42:52.570Z,52.95
2023-03-16T22:45:19.197Z,54.47
2023-03-16T22:47:45.594Z,53.27
2023-03-16T22:50:11.930Z,55.95
2023-03-16T22:52:38.313Z,57.34
2023-03-16T22:55:04.680Z,58.51
2023-03-16T22:57:31.063Z,56.20
2023-03-16T22:59:57.416Z,56.02
2023-03-16T23:02:23.809Z,57.65
2023-03-16T23:04:50.238Z,57.78
2023-03-16T23:07:16.605Z,59.06
2023-03-16T23:09:42.993Z,58.55
2023-03-16T23:12:09.388Z,59.34
2023-03-16T23:14:35.751Z,58.89
2023-03-16T23:17:02.149Z,57.45
2023-03-16T23:19:28.543Z,57.48
2023-03-16T23:21:54.901Z,58.20
2023-03-16T23:24:21.288Z,58.29
2023-03-16T23:26:47.649Z,57.72
2023-03-16T23:29:14.005Z,58.25
2023-03-16T23:31:40.369Z,58.81
2023-03-16T23:34:06.763Z,57.74
2023-03-16T23:36:33.107Z,58.83
2023-03-16T23:38:59.440Z,60.02
2023-03-16T23:41:25.806Z,59.15
2023-03-16T23:43:52.151Z,57.67
2023-03-16T23:46:18.610Z,58.52
2023-03-16T23:48:45.000Z,58.21
2023-03-16T23:51:11.339Z,58.88
2023-03-16T23:53:37.672Z,57.94
2023-03-16T23:56:04.019Z,58.04
2023-03-16T23:58:30.357Z,57.54
